createdAt,value
2023-01-02T10:59:44.144Z,22.55
2023-01-02T11:02:27.370Z,22.82
2023-01-02T11:04:59.726Z,22.67
2023-01-02T11:07:31.700Z,23.19
2023-01-02T11:10:01.212Z,21.21
2023-01-02T11:12:29.384Z,21.95
2023-01-02T11:15:13.847Z,23.28
2023-01-02T11:17:44.067Z,22.70
2023-01-02T11:20:25.442Z,22.23
2023-01-02T11:23:01.409Z,21.68
2023-01-02T11:25:43.232Z,21.63
2023-01-02T11:28:20.828Z,22.49
2023-01-02T11:30:55.394Z,22.23
2023-01-02T11:33:29.460Z,21.92
2023-01-02T11:35:58.508Z,20.66
2023-01-02T11:38:39.832Z,20.79
2023-01-02T11:41:23.969Z,20.18
2023-01-02T11:43:57.370Z,18.36
2023-01-02T11:46:35.571Z,18.87
2023-01-02T11:49:26.571Z,19.93
2023-01-02T11:51:58.804Z,20.05
2023-01-02T11:54:51.632Z,21.00
2023-01-02T11:57:35.880Z,21.65
2023-01-02T12:00:09.979Z,21.86
2023-01-02T12:02:49.660Z,21.77
2023-01-02T12:05:32.929Z,22.48
2023-01-02T12:08:19.131Z,22.25
2023-01-02T12:11:05.460Z,21.33
2023-01-02T12:13:41.719Z,20.88
2023-01-02T12:16:18.322Z,21.16
2023-01-02T12:19:10.246Z,20.34
2023-01-02T12:21:46.501Z,20.39
2023-01-02T12:24:43.688Z,20.31
2023-01-02T12:27:19.850Z,20.66
2023-01-02T12:30:11.943Z,20.24
2023-01-02T12:33:01.394Z,19.54
2023-01-02T12:36:06.092Z,19.96
2023-01-02T12:38:55.386Z,19.11
2023-01-02T12:42:00.568Z,19.30
2023-01-02T12:44:47.048Z,18.49
2023-01-02T12:47:29.765Z,18.29
2023-01-02T12:50:18.334Z,17.56
2023-01-02T12:53:13.470Z,17.73
2023-01-02T12:55:59.379Z,17.28
2023-01-02T12:58:42.155Z,16.67
2023-01-02T13:01:15.968Z,16.96
2023-01-02T13:04:03.436Z,16.80
2023-01-02T13:06:54.856Z,16.44
2023-01-02T13:09:28.344Z,16.75
2023-01-02T13:12:15.113Z,17.23
2023-01-02T13:14:48.753Z,16.57
2023-01-02T13:17:46.040Z,17.02
2023-01-02T13:20:19.878Z,15.68
2023-01-02T13:23:16.465Z,16.20
2023-01-02T13:25:58.356Z,16.64
2023-01-02T13:28:26.060Z,16.85
2023-01-02T13:33:55.849Z,17.42
2023-01-02T13:36:42.339Z,17.63
2023-01-02T13:39:21.411Z,17.48
2023-01-02T13:42:09.849Z,18.16
2023-01-02T13:44:40.708Z,18.59
2023-01-02T13:47:25.547Z,18.45
2023-01-02T13:50:13.219Z,18.08
2023-01-02T13:52:53.826Z,16.60
2023-01-02T13:55:21.755Z,16.81
2023-01-02T13:58:12.429Z,16.65
2023-01-02T14:00:54.289Z,16.91
2023-01-02T14:03:25.152Z,16.56
2023-01-02T14:05:58.641Z,16.59
2023-01-02T14:08:27.352Z,17.00
2023-01-02T14:11:01.887Z,17.00
2023-01-02T14:13:42.142Z,15.93
2023-01-02T14:16:27.478Z,15.50
2023-01-02T14:19:13.120Z,14.82
2023-01-02T14:21:58.677Z,14.68
2023-01-02T14:24:38.508Z,14.36
2023-01-02T14:27:27.457Z,13.98
2023-01-02T14:29:59.608Z,13.74
2023-01-02T14:32:36.970Z,13.52
2023-01-02T14:35:24.089Z,13.28
2023-01-02T14:37:55.473Z,13.00
2023-01-02T14:40:23.250Z,12.58
2023-01-02T14:43:18.001Z,12.23
2023-01-02T14:45:50.205Z,11.96
2023-01-02T14:48:28.614Z,11.70
2023-01-02T14:51:04.573Z,11.27
2023-01-02T14:53:55.935Z,10.92
2023-01-02T14:56:38.172Z,10.72
2023-01-02T14:59:14.047Z,10.46
2023-01-02T15:01:45.572Z,10.09
2023-01-02T15:04:15.809Z,10.05
2023-01-02T15:06:46.994Z,9.78
2023-01-02T15:09:36.943Z,9.62
2023-01-02T15:12:41.675Z,9.38
2023-01-02T15:15:16.877Z,9.27
2023-01-02T15:17:49.231Z,9.07
2023-01-02T15:20:21.656Z,9.02
2023-01-02T15:22:52.341Z,9.03
2023-01-02T15:25:41.501Z,8.85
2023-01-02T15:28:33.568Z,8.95
2023-01-02T15:31:12.339Z,8.76
2023-01-02T15:33:40.216Z,8.85
2023-01-02T15:36:14.062Z,8.94
2023-01-02T15:38:44.134Z,8.84
2023-01-02T15:41:19.687Z,8.93
2023-01-02T15:44:06.711Z,8.68
2023-01-02T15:46:34.855Z,8.63
2023-01-02T15:49:04.238Z,8.69
2023-01-02T15:51:40.529Z,8.49
2023-01-02T15:54:14.798Z,8.54
2023-01-02T15:56:42.472Z,8.51
2023-01-02T15:59:33.579Z,8.54
2023-01-02T16:02:03.213Z,8.53
2023-01-02T16:04:34.632Z,8.47
2023-01-02T16:07:24.239Z,8.53
2023-01-02T16:09:56.385Z,8.41
2023-01-02T16:12:24.518Z,8.34
2023-01-02T16:14:56.184Z,8.38
2023-01-02T16:17:32.213Z,8.40
2023-01-02T16:20:18.138Z,8.39
2023-01-02T16:22:57.699Z,8.27
2023-01-02T16:25:33.743Z,8.35
2023-01-02T16:28:34.760Z,8.44
2023-01-02T16:31:19.110Z,8.34
2023-01-02T16:33:47.583Z,8.35
2023-01-02T16:36:15.123Z,8.46
2023-01-02T16:39:01.543Z,8.43
2023-01-02T16:41:38.105Z,8.32
2023-01-02T16:44:20.247Z,8.36
2023-01-02T16:46:49.352Z,8.47
2023-01-02T16:49:20.530Z,8.35
2023-01-02T16:51:51.516Z,8.34
2023-01-02T16:54:19.679Z,8.31
2023-01-02T16:56:48.801Z,8.35
2023-01-02T16:59:16.364Z,8.24
2023-01-02T17:01:46.010Z,8.28
2023-01-02T17:04:15.142Z,8.36
2023-01-02T17:06:46.772Z,8.35
2023-01-02T17:09:14.268Z,8.19
2023-01-02T17:12:01.353Z,8.22
2023-01-02T17:14:33.240Z,8.18
2023-01-02T17:17:00.857Z,8.19
2023-01-02T17:19:28.796Z,8.12
2023-01-02T17:21:56.764Z,8.04
2023-01-02T17:24:24.254Z,8.03
2023-01-02T17:26:53.884Z,7.95
2023-01-02T17:29:21.776Z,7.98
2023-01-02T17:31:49.639Z,7.85
2023-01-02T17:34:17.375Z,7.82
2023-01-02T17:36:45.477Z,7.75
2023-01-02T17:39:13.160Z,7.82
2023-01-02T17:41:40.738Z,7.79
2023-01-02T17:44:08.302Z,7.68
2023-01-02T17:49:23.430Z,7.67
2023-01-02T17:51:51.218Z,7.59
2023-01-02T17:54:19.707Z,7.52
2023-01-02T17:56:47.339Z,7.48
2023-01-02T17:59:19.197Z,7.46
2023-01-02T18:01:48.186Z,7.44
2023-01-02T18:04:16.474Z,7.43
2023-01-02T18:06:43.953Z,7.31
2023-01-02T18:09:12.341Z,7.12
2023-01-02T18:11:39.889Z,6.81
2023-01-02T18:14:19.169Z,6.73
2023-01-02T18:16:47.055Z,6.63
2023-01-02T18:19:17.263Z,6.63
2023-01-02T18:21:45.482Z,6.73
2023-01-02T18:24:29.931Z,6.78
2023-01-02T18:27:02.766Z,6.80
2023-01-02T18:29:31.265Z,6.74
2023-01-02T18:31:59.370Z,6.64
2023-01-02T18:34:47.819Z,6.64
2023-01-02T18:37:23.783Z,6.69
2023-01-02T18:39:52.443Z,6.74
2023-01-02T18:42:23.252Z,6.82
2023-01-02T18:44:52.073Z,6.71
2023-01-02T18:47:34.992Z,6.80
2023-01-02T18:50:25.539Z,6.86
2023-01-02T18:52:54.283Z,7.06
2023-01-02T18:55:30.663Z,6.88
2023-01-02T18:58:07.666Z,6.83
2023-01-02T19:00:35.700Z,6.91
2023-01-02T19:03:38.897Z,7.04
2023-01-02T19:06:21.624Z,7.02
2023-01-02T19:08:50.128Z,6.57
2023-01-02T19:11:44.798Z,6.28
2023-01-02T19:14:17.016Z,5.91
2023-01-02T19:16:48.343Z,5.74
2023-01-02T19:19:20.716Z,5.96
2023-01-02T19:21:49.750Z,6.39
2023-01-02T19:24:21.471Z,6.75
2023-01-02T19:26:52.583Z,6.94
2023-01-02T19:29:24.824Z,7.05
2023-01-02T19:32:02.906Z,7.05
2023-01-02T19:34:33.275Z,7.07
2023-01-02T19:37:13.047Z,7.15
2023-01-02T19:39:44.348Z,7.18
2023-01-02T19:42:23.147Z,7.19
2023-01-02T19:44:54.335Z,7.27
2023-01-02T19:47:24.392Z,7.35
2023-01-02T19:49:53.459Z,7.33
2023-01-02T19:52:22.574Z,7.38
2023-01-02T19:54:52.377Z,7.32
2023-01-02T19:57:21.911Z,7.37
2023-01-02T19:59:53.327Z,7.30
2023-01-02T20:02:22.580Z,7.29
2023-01-02T20:04:54.382Z,7.24
2023-01-02T20:07:24.822Z,7.05
2023-01-02T20:09:53.495Z,6.94
2023-01-02T20:12:50.847Z,6.67
2023-01-02T20:15:23.293Z,6.29
2023-01-02T20:17:56.639Z,6.03
2023-01-02T20:20:26.368Z,5.89
2023-01-02T20:22:55.024Z,5.76
2023-01-02T20:25:26.186Z,5.61
2023-01-02T20:27:55.910Z,5.45
2023-01-02T20:30:29.247Z,5.27
2023-01-02T20:32:56.843Z,5.28
2023-01-02T20:35:24.477Z,5.23
2023-01-02T20:37:52.424Z,5.21
2023-01-02T20:40:21.225Z,5.29
2023-01-02T20:42:49.066Z,5.25
2023-01-02T20:45:16.664Z,5.17
2023-01-02T20:47:45.139Z,4.86
2023-01-02T20:50:13.060Z,4.93
2023-01-02T20:52:41.404Z,4.91
2023-01-02T20:55:09.894Z,4.92
2023-01-02T20:57:37.649Z,5.01
2023-01-02T21:00:10.366Z,5.04
2023-01-02T21:02:39.006Z,5.01
2023-01-02T21:05:07.335Z,5.03
2023-01-02T21:07:35.194Z,5.00
2023-01-02T21:10:04.964Z,5.00
2023-01-02T21:12:52.212Z,4.92
2023-01-02T21:15:38.365Z,4.86
2023-01-02T21:18:05.896Z,4.44
2023-01-02T21:20:33.796Z,4.58
2023-01-02T21:23:04.482Z,4.69
2023-01-02T21:25:34.525Z,4.53
2023-01-02T21:28:02.382Z,4.38
2023-01-02T21:30:33.627Z,4.40
2023-01-02T21:33:03.238Z,4.48
2023-01-02T21:35:37.671Z,4.38
2023-01-02T21:38:05.262Z,4.38
2023-01-02T21:40:32.927Z,4.34
2023-01-02T21:43:00.759Z,4.27
2023-01-02T21:45:28.415Z,4.35
2023-01-02T21:47:56.132Z,4.26
2023-01-02T21:50:25.085Z,4.02
2023-01-02T21:52:57.166Z,4.15
2023-01-02T21:55:27.823Z,4.14
2023-01-02T21:58:13.986Z,4.07
2023-01-02T22:00:42.457Z,3.94
2023-01-02T22:03:10.716Z,3.78
2023-01-02T22:05:38.447Z,3.75
2023-01-02T22:08:06.276Z,3.77
2023-01-02T22:10:34.143Z,3.83
2023-01-02T22:13:01.729Z,3.66
2023-01-02T22:15:34.642Z,3.58
2023-01-02T22:18:02.658Z,3.50
2023-01-02T22:20:35.818Z,3.41
2023-01-02T22:23:04.595Z,3.28
2023-01-02T22:25:33.802Z,3.21
2023-01-02T22:28:01.994Z,3.08
2023-01-02T22:30:34.425Z,2.89
2023-01-02T22:33:06.233Z,2.97
2023-01-02T22:35:33.904Z,2.90
2023-01-02T22:38:04.310Z,2.92
2023-01-02T22:40:31.927Z,2.84
2023-01-02T22:43:03.874Z,2.81
2023-01-02T22:45:53.153Z,2.84
2023-01-02T22:48:27.992Z,2.81
2023-01-02T22:51:00.308Z,2.89
2023-01-02T22:53:30.704Z,2.82
2023-01-02T22:55:59.747Z,2.63
2023-01-02T22:58:27.841Z,2.58
2023-01-02T23:01:21.873Z,2.55
2023-01-02T23:03:49.795Z,2.59
2023-01-02T23:06:22.346Z,2.45
2023-01-02T23:08:52.028Z,2.39
2023-01-02T23:11:23.235Z,2.40
2023-01-02T23:13:56.339Z,2.22
2023-01-02T23:16:43.112Z,2.06
2023-01-02T23:19:18.923Z,2.03
2023-01-02T23:21:54.254Z,1.98
2023-01-02T23:24:25.359Z,1.90
2023-01-02T23:26:55.005Z,1.87
2023-01-02T23:29:25.019Z,1.96
2023-01-02T23:31:53.575Z,1.94
2023-01-02T23:34:24.152Z,1.89
2023-01-02T23:36:53.494Z,1.89
2023-01-02T23:39:23.871Z,1.72
2023-01-02T23:41:52.276Z,1.72
2023-01-02T23:44:21.775Z,1.67
2023-01-02T23:46:49.351Z,1.64
2023-01-02T23:49:17.286Z,1.72
2023-01-02T23:51:46.166Z,1.63
2023-01-02T23:54:15.425Z,1.85
2023-01-02T23:56:45.286Z,1.90
2023-01-02T23:59:16.757Z,1.92
